createdAt,value
2023-02-23T00:00:02.042Z,101122.1
2023-02-23T00:01:06.321Z,101119.08
2023-02-23T00:02:10.597Z,101123.03
2023-02-23T00:03:14.907Z,101120.99
2023-02-23T00:04:19.218Z,101119.17
2023-02-23T00:05:23.522Z,101117.84
2023-02-23T00:06:27.869Z,101114.77
2023-02-23T00:07:32.318Z,101111.56
2023-02-23T00:08:36.545Z,101116.91
2023-02-23T00:09:40.786Z,101109.11
2023-02-23T00:10:45.024Z,101116.56
2023-02-23T00:11:49.294Z,101116.86
2023-02-23T00:12:53.545Z,101112.67
2023-02-23T00:13:57.838Z,101112.25
2023-02-23T00:15:02.132Z,101111.45
2023-02-23T00:16:06.532Z,101106.91
2023-02-23T00:17:10.884Z,101105.56
2023-02-23T00:18:15.194Z,101106.27
2023-02-23T00:19:19.605Z,101099.44
2023-02-23T00:20:24.044Z,101105.4
2023-02-23T00:21:28.361Z,101101.07
2023-02-23T00:22:32.666Z,101104.52
2023-02-23T00:23:36.976Z,101105.56
2023-02-23T00:24:41.294Z,101099.8
2023-02-23T00:25:46.102Z,101095.5
2023-02-23T00:26:50.414Z,101095.25
2023-02-23T00:27:55.106Z,101092.69
2023-02-23T00:28:59.406Z,101097.13
2023-02-23T00:30:03.704Z,101098.81
2023-02-23T00:31:08.070Z,101096.72
2023-02-23T00:32:12.780Z,101094.73
2023-02-23T00:33:17.390Z,101097.23
2023-02-23T00:34:21.695Z,101095.95
2023-02-23T00:35:25.999Z,101089.73
2023-02-23T00:36:30.324Z,101095.09
2023-02-23T00:37:34.596Z,101093.69
2023-02-23T00:38:38.935Z,101102.42
2023-02-23T00:39:43.355Z,101099.86
2023-02-23T00:40:47.651Z,101101.66
2023-02-23T00:41:51.969Z,101101.78
2023-02-23T00:42:56.274Z,101102.3
2023-02-23T00:44:00.592Z,101099.33
2023-02-23T00:45:04.882Z,101096.3
2023-02-23T00:46:09.261Z,101102.17
2023-02-23T00:47:13.612Z,101094.74
2023-02-23T00:48:17.917Z,101093.56
2023-02-23T00:49:22.188Z,101092.23
2023-02-23T00:50:26.471Z,101096.36
2023-02-23T00:51:30.766Z,101094.16
2023-02-23T00:52:35.077Z,101098.58
2023-02-23T00:53:39.386Z,101096.13
2023-02-23T00:54:43.716Z,101089.8
2023-02-23T00:55:50.315Z,101089.45
2023-02-23T00:56:54.613Z,101090.78
2023-02-23T00:57:58.917Z,101093.05
2023-02-23T00:59:03.445Z,101089.55
2023-02-23T01:00:07.781Z,101084.95
2023-02-23T01:01:12.177Z,101090.3
2023-02-23T01:02:16.656Z,101093.56
2023-02-23T01:03:20.980Z,101086.36
2023-02-23T01:04:25.262Z,101091.72
2023-02-23T01:05:29.682Z,101093.91
2023-02-23T01:06:33.971Z,101089.45
2023-02-23T01:07:38.284Z,101086.7
2023-02-23T01:08:42.591Z,101087.22
2023-02-23T01:09:46.895Z,101088.2
2023-02-23T01:10:51.208Z,101092.16
2023-02-23T01:11:55.535Z,101089.61
2023-02-23T01:12:59.853Z,101085.08
2023-02-23T01:14:04.151Z,101090.3
2023-02-23T01:15:08.471Z,101086.58
2023-02-23T01:16:12.783Z,101085.3
2023-02-23T01:17:17.154Z,101079.03
2023-02-23T01:18:21.482Z,101079.31
2023-02-23T01:19:25.781Z,101084.77
2023-02-23T01:20:30.072Z,101086.3
2023-02-23T01:21:34.409Z,101082.22
2023-02-23T01:22:38.759Z,101080.95
2023-02-23T01:23:43.054Z,101083.08
2023-02-23T01:24:47.375Z,101078.91
2023-02-23T01:25:51.705Z,101083.5
2023-02-23T01:26:56.004Z,101078.91
2023-02-23T01:28:00.314Z,101087.09
2023-02-23T01:29:04.743Z,101083.78
2023-02-23T01:30:09.103Z,101084.42
2023-02-23T01:31:13.731Z,101089.55
2023-02-23T01:32:18.422Z,101080.05
2023-02-23T01:33:22.978Z,101081.45
2023-02-23T01:34:27.322Z,101081.23
2023-02-23T01:35:31.639Z,101086.93
2023-02-23T01:36:35.967Z,101081.01
2023-02-23T01:37:40.258Z,101087.86
2023-02-23T01:38:44.553Z,101085.41
2023-02-23T01:39:48.862Z,101070.4
2023-02-23T01:40:53.152Z,101081.27
2023-02-23T01:41:57.487Z,101076.59
2023-02-23T01:43:01.796Z,101076.68
2023-02-23T01:44:06.142Z,101077.8
2023-02-23T01:45:10.491Z,101078.44
2023-02-23T01:46:14.857Z,101077.03
2023-02-23T01:47:19.277Z,101071.75
2023-02-23T01:48:23.604Z,101073.44
2023-02-23T01:49:27.962Z,101070.85
2023-02-23T01:50:32.299Z,101069
2023-02-23T01:51:36.658Z,101070.34
2023-02-23T01:52:40.948Z,101073.25
2023-02-23T01:53:45.291Z,101072.25
2023-02-23T01:54:49.649Z,101073.44
2023-02-23T01:55:54.049Z,101062.12
2023-02-23T01:56:58.752Z,101072.48
2023-02-23T01:58:03.090Z,101064.45
2023-02-23T01:59:07.383Z,101064.58
2023-02-23T02:00:11.690Z,101072.48
2023-02-23T02:01:16.257Z,101070.7
2023-02-23T02:02:21.369Z,101061.77
2023-02-23T02:03:25.665Z,101063.66
2023-02-23T02:04:30.004Z,101061.91
2023-02-23T02:05:34.338Z,101063.94
2023-02-23T02:06:38.642Z,101058.52
2023-02-23T02:07:42.939Z,101063.94
2023-02-23T02:08:47.260Z,101062.19
2023-02-23T02:09:51.597Z,101063.24
2023-02-23T02:10:55.903Z,101055.28
2023-02-23T02:12:00.273Z,101059.7
2023-02-23T02:13:04.551Z,101050.72
2023-02-23T02:14:08.859Z,101049.38
2023-02-23T02:15:13.232Z,101048.94
2023-02-23T02:16:17.604Z,101050.97
2023-02-23T02:17:22.142Z,101050.2
2023-02-23T02:18:26.436Z,101052.31
2023-02-23T02:19:30.787Z,101052.12
2023-02-23T02:20:35.172Z,101054.45
2023-02-23T02:21:39.483Z,101053.17
2023-02-23T02:22:43.816Z,101060.37
2023-02-23T02:23:48.178Z,101051.91
2023-02-23T02:24:52.577Z,101052.34
2023-02-23T02:25:57.004Z,101047.83
2023-02-23T02:27:01.496Z,101050.09
2023-02-23T02:28:05.764Z,101043.74
2023-02-23T02:29:10.114Z,101049.67
2023-02-23T02:30:14.457Z,101046.13
2023-02-23T02:31:19.523Z,101047.54
2023-02-23T02:32:24.871Z,101044.03
2023-02-23T02:33:29.311Z,101048.46
2023-02-23T02:34:33.621Z,101038.45
2023-02-23T02:35:37.899Z,101041.55
2023-02-23T02:36:42.203Z,101030.36
2023-02-23T02:37:46.522Z,101029.02
2023-02-23T02:38:50.795Z,101041.48
2023-02-23T02:39:55.128Z,101037.81
2023-02-23T02:40:59.425Z,101037.81
2023-02-23T02:42:03.703Z,101033.61
2023-02-23T02:43:07.996Z,101030.94
2023-02-23T02:44:12.310Z,101029.73
2023-02-23T02:45:16.690Z,101031.98
2023-02-23T02:46:21.306Z,101029.84
2023-02-23T02:47:25.679Z,101029.21
2023-02-23T02:48:29.971Z,101032.4
2023-02-23T02:49:34.302Z,101034.86
2023-02-23T02:50:38.624Z,101031.41
2023-02-23T02:51:42.964Z,101020.78
2023-02-23T02:52:47.262Z,101024.59
2023-02-23T02:53:51.544Z,101020.01
2023-02-23T02:54:55.836Z,101023.32
2023-02-23T02:56:00.131Z,101027.4
2023-02-23T02:57:04.576Z,101020.78
2023-02-23T02:58:08.958Z,101020.02
2023-02-23T02:59:13.238Z,101021
2023-02-23T03:00:17.555Z,101022.97
2023-02-23T03:01:22.354Z,101015.08
2023-02-23T03:02:26.788Z,101018.67
2023-02-23T03:03:31.108Z,101014.59
2023-02-23T03:04:35.413Z,101012.84
2023-02-23T03:05:39.711Z,101013.19
2023-02-23T03:06:43.991Z,101007.56
2023-02-23T03:07:48.281Z,101018.67
2023-02-23T03:08:52.604Z,101007.56
2023-02-23T03:09:56.900Z,101013.9
2023-02-23T03:11:01.229Z,101015.81
2023-02-23T03:12:05.509Z,101012.27
2023-02-23T03:13:09.811Z,101009.19
2023-02-23T03:14:14.176Z,101006.03
2023-02-23T03:15:18.528Z,101006.8
2023-02-23T03:16:23.319Z,101007.44
2023-02-23T03:17:27.776Z,101007.09
2023-02-23T03:18:32.087Z,101004.34
2023-02-23T03:19:36.372Z,101003.26
2023-02-23T03:20:40.701Z,101004.3
2023-02-23T03:21:45.075Z,100996.16
2023-02-23T03:22:49.389Z,101005.8
2023-02-23T03:23:53.703Z,100995.8
2023-02-23T03:24:58.010Z,101001.09
2023-02-23T03:26:02.311Z,100999.05
2023-02-23T03:27:06.601Z,101004.54
2023-02-23T03:28:10.919Z,101000.11
2023-02-23T03:29:15.208Z,100997.66
2023-02-23T03:30:19.497Z,101003.9
2023-02-23T03:31:23.978Z,101003.13
2023-02-23T03:32:28.839Z,100992.59
2023-02-23T03:33:33.556Z,100998
2023-02-23T03:34:37.845Z,100999.41
2023-02-23T03:35:42.142Z,100989.18
2023-02-23T03:36:46.447Z,101001.73
2023-02-23T03:37:50.776Z,100996.03
2023-02-23T03:38:55.096Z,101003.99
2023-02-23T03:39:59.422Z,101000.05
2023-02-23T03:41:03.717Z,100998.98
2023-02-23T03:42:08.036Z,100996.8
2023-02-23T03:43:12.352Z,100999.63
2023-02-23T03:44:16.638Z,100990.97
2023-02-23T03:45:20.975Z,100995.05
2023-02-23T03:46:25.348Z,101002.72
2023-02-23T03:47:29.740Z,100992.84
2023-02-23T03:48:34.014Z,100997.84
2023-02-23T03:49:38.317Z,100994
2023-02-23T03:50:42.603Z,100986.45
2023-02-23T03:51:46.883Z,100990.91
2023-02-23T03:52:51.219Z,100994.57
2023-02-23T03:53:55.514Z,100991.51
2023-02-23T03:54:59.813Z,100991.31
2023-02-23T03:56:04.091Z,100985.52
2023-02-23T03:57:08.396Z,100986.85
2023-02-23T03:58:12.700Z,100990.73
2023-02-23T03:59:16.986Z,100988.18
2023-02-23T04:00:21.313Z,100985.16
2023-02-23T04:01:25.683Z,100992.2
2023-02-23T04:02:29.961Z,100992.42
2023-02-23T04:03:34.348Z,100989.36
2023-02-23T04:04:38.770Z,100985.28
2023-02-23T04:05:43.108Z,100987.78
2023-02-23T04:06:47.426Z,100991.31
2023-02-23T04:07:51.724Z,100991.51
2023-02-23T04:08:56.017Z,100991.73
2023-02-23T04:10:00.330Z,100987.88
2023-02-23T04:11:04.681Z,100990.55
2023-02-23T04:12:08.992Z,100989.63
2023-02-23T04:13:13.534Z,100983.42
2023-02-23T04:14:17.884Z,100983.92
2023-02-23T04:15:22.177Z,100985.61
2023-02-23T04:16:26.505Z,100984.05
2023-02-23T04:17:30.943Z,100984.56
2023-02-23T04:18:35.211Z,100983.36
2023-02-23T04:19:39.518Z,100982.44
2023-02-23T04:20:43.876Z,100977.18
2023-02-23T04:21:48.236Z,100980.33
2023-02-23T04:22:52.546Z,100982.02
2023-02-23T04:23:56.885Z,100985.55
2023-02-23T04:25:01.143Z,100973
2023-02-23T04:26:05.410Z,100974.85
2023-02-23T04:27:09.636Z,100972.94
2023-02-23T04:28:13.874Z,100975.27
2023-02-23T04:29:18.171Z,100970.97
2023-02-23T04:30:22.435Z,100970.91
2023-02-23T04:31:27.948Z,100970.55
2023-02-23T04:32:32.536Z,100960.54
2023-02-23T04:33:37.096Z,100967.06
2023-02-23T04:34:41.478Z,100968.41
2023-02-23T04:35:45.744Z,100967.53
2023-02-23T04:36:49.987Z,100959.56
2023-02-23T04:37:54.285Z,100961.35
2023-02-23T04:38:58.536Z,100963.47
2023-02-23T04:40:02.826Z,100962.75
2023-02-23T04:41:07.064Z,100962.11
2023-02-23T04:42:11.293Z,100960.83
2023-02-23T04:43:15.830Z,100949.48
2023-02-23T04:44:20.121Z,100955.7
2023-02-23T04:45:24.438Z,100950.78
2023-02-23T04:46:28.704Z,100949.37
2023-02-23T04:47:32.948Z,100948.91
2023-02-23T04:48:37.189Z,100947.29
2023-02-23T04:49:41.441Z,100950.82
2023-02-23T04:50:45.747Z,100953.7
2023-02-23T04:51:50.088Z,100947.98
2023-02-23T04:52:55.402Z,100950.89
2023-02-23T04:53:59.635Z,100949.83
2023-02-23T04:55:03.861Z,100948.45
2023-02-23T04:56:08.141Z,100950.95
2023-02-23T04:57:12.605Z,100945.83
2023-02-23T04:58:16.864Z,100947.11
2023-02-23T04:59:21.111Z,100955.84
2023-02-23T05:00:25.825Z,100952.64
2023-02-23T05:01:30.119Z,100948.34
2023-02-23T05:02:34.471Z,100942.69
2023-02-23T05:03:38.732Z,100949.03
2023-02-23T05:04:43.108Z,100945.55
2023-02-23T05:05:47.435Z,100946.94
2023-02-23T05:06:51.728Z,100949.86
2023-02-23T05:07:56.156Z,100941.45
2023-02-23T05:09:00.423Z,100941.34
2023-02-23T05:10:05.676Z,100942.84
2023-02-23T05:11:09.952Z,100941.07
2023-02-23T05:12:14.183Z,100942.75
2023-02-23T05:13:18.429Z,100934.33
2023-02-23T05:14:22.693Z,100937.71
2023-02-23T05:15:26.945Z,100931.31
2023-02-23T05:16:31.200Z,100932.73
2023-02-23T05:17:35.440Z,100930.27
2023-02-23T05:18:39.673Z,100932.57
2023-02-23T05:19:43.918Z,100926.69
2023-02-23T05:20:48.196Z,100935.38
2023-02-23T05:21:52.438Z,100926.38
2023-02-23T05:22:56.683Z,100924.2
2023-02-23T05:24:00.951Z,100922.89
2023-02-23T05:25:05.191Z,100925.78
2023-02-23T05:26:09.473Z,100925.36
2023-02-23T05:27:13.772Z,100926.59
2023-02-23T05:28:18.040Z,100921.5
2023-02-23T05:29:22.314Z,100918.58
2023-02-23T05:30:26.618Z,100916.58
2023-02-23T05:31:31.113Z,100913.83
2023-02-23T05:32:35.684Z,100922.28
2023-02-23T05:33:40.001Z,100914.38
2023-02-23T05:34:44.285Z,100916.82
2023-02-23T05:35:50.758Z,100918.64
2023-02-23T05:36:55.008Z,100921.98
2023-02-23T05:37:59.246Z,100915.34
2023-02-23T05:39:03.489Z,100913.3
2023-02-23T05:40:07.796Z,100916.95
2023-02-23T05:41:12.063Z,100911.93
2023-02-23T05:42:16.346Z,100920.19
2023-02-23T05:43:20.637Z,100920.25
2023-02-23T05:44:24.887Z,100918.47
2023-02-23T05:45:29.171Z,100921.39
2023-02-23T05:46:33.514Z,100921.98
2023-02-23T05:47:37.848Z,100918.2
2023-02-23T05:48:42.325Z,100918.34
2023-02-23T05:49:46.589Z,100913.15
2023-02-23T05:50:50.831Z,100913.59
2023-02-23T05:51:55.064Z,100913.36
2023-02-23T05:52:59.304Z,100908.72
2023-02-23T05:54:03.577Z,100916.08
2023-02-23T05:55:07.818Z,100911.37
2023-02-23T05:56:12.180Z,100904.22
2023-02-23T05:57:16.428Z,100911.58
2023-02-23T05:58:20.683Z,100908.79
2023-02-23T05:59:24.926Z,100905.77
2023-02-23T06:00:29.159Z,100908.09
2023-02-23T06:01:33.474Z,100907.63
2023-02-23T06:02:37.857Z,100911.81
2023-02-23T06:03:42.460Z,100906.69
2023-02-23T06:04:46.796Z,100910.84
2023-02-23T06:05:51.061Z,100911.02
2023-02-23T06:06:55.337Z,100912.49
2023-02-23T06:07:59.594Z,100910.16
2023-02-23T06:09:03.866Z,100904.55
2023-02-23T06:10:08.135Z,100913.8
2023-02-23T06:11:12.379Z,100911.86
2023-02-23T06:12:16.636Z,100907.5
2023-02-23T06:13:20.878Z,100908.91
2023-02-23T06:14:25.183Z,100909.48
2023-02-23T06:15:31.027Z,100908.22
2023-02-23T06:16:35.605Z,100913.64
2023-02-23T06:17:40.185Z,100905.27
2023-02-23T06:18:44.424Z,100908.8
2023-02-23T06:19:48.711Z,100899.42
2023-02-23T06:20:52.988Z,100906.7
2023-02-23T06:21:57.266Z,100906.77
2023-02-23T06:23:01.496Z,100908.11
2023-02-23T06:24:05.863Z,100910.17
2023-02-23T06:25:10.168Z,100904.95
2023-02-23T06:26:14.424Z,100900.83
2023-02-23T06:27:18.726Z,100902.41
2023-02-23T06:28:22.995Z,100898.55
2023-02-23T06:29:27.561Z,100897.75
2023-02-23T06:30:31.955Z,100897.55
2023-02-23T06:31:36.463Z,100886.56
2023-02-23T06:32:41.257Z,100898.91
2023-02-23T06:33:45.524Z,100891.97
2023-02-23T06:34:49.763Z,100892.8
2023-02-23T06:35:53.994Z,100890.84
2023-02-23T06:36:58.247Z,100904.73
2023-02-23T06:38:02.621Z,100897.63
2023-02-23T06:39:06.859Z,100897.19
2023-02-23T06:40:11.095Z,100899.61
2023-02-23T06:41:15.359Z,100900.95
2023-02-23T06:42:19.970Z,100901.5
2023-02-23T06:43:24.545Z,100903.52
2023-02-23T06:44:28.791Z,100901.67
2023-02-23T06:45:33.065Z,100901.09
2023-02-23T06:46:37.514Z,100902.02
2023-02-23T06:47:41.875Z,100897.83
2023-02-23T06:48:46.097Z,100897.63
2023-02-23T06:49:50.331Z,100901.89
2023-02-23T06:50:54.592Z,100898.56
2023-02-23T06:51:58.871Z,100895.52
2023-02-23T06:53:03.135Z,100894.52
2023-02-23T06:54:07.401Z,100900.64
2023-02-23T06:55:11.760Z,100895.08
2023-02-23T06:56:16.004Z,100896.73
2023-02-23T06:57:20.230Z,100897.94
2023-02-23T06:58:24.514Z,100896.25
2023-02-23T06:59:28.807Z,100901.77
2023-02-23T07:00:33.104Z,100899.86
2023-02-23T07:01:37.428Z,100904.7
2023-02-23T07:02:41.747Z,100905.63
2023-02-23T07:03:46.060Z,100903.22
2023-02-23T07:04:50.399Z,100906.11
2023-02-23T07:05:54.655Z,100901.84
2023-02-23T07:06:58.916Z,100910.36
2023-02-23T07:08:03.172Z,100899.4
2023-02-23T07:09:07.412Z,100905.17
2023-02-23T07:10:11.695Z,100901.73
2023-02-23T07:11:15.972Z,100902.14
2023-02-23T07:12:20.973Z,100903.89
2023-02-23T07:13:25.442Z,100905.41
2023-02-23T07:14:29.752Z,100911.1
2023-02-23T07:15:33.999Z,100898.84
2023-02-23T07:16:38.346Z,100908.45
2023-02-23T07:17:42.715Z,100903.58
2023-02-23T07:18:47.044Z,100909.09
2023-02-23T07:19:51.290Z,100908.69
2023-02-23T07:20:55.570Z,100905.66
2023-02-23T07:21:59.824Z,100906.48
2023-02-23T07:23:04.123Z,100899.03
2023-02-23T07:24:08.384Z,100902.29
2023-02-23T07:25:12.665Z,100901.6
2023-02-23T07:26:16.988Z,100899.05
2023-02-23T07:27:21.238Z,100900.05
2023-02-23T07:28:25.500Z,100897.47
2023-02-23T07:29:29.784Z,100907.26
2023-02-23T07:30:34.125Z,100897.13
2023-02-23T07:31:38.850Z,100907.83
2023-02-23T07:32:43.499Z,100902.2
2023-02-23T07:33:47.844Z,100903.03
2023-02-23T07:34:54.795Z,100901.98
2023-02-23T07:35:59.048Z,100896.73
2023-02-23T07:37:03.590Z,100901.58
2023-02-23T07:38:07.865Z,100907.55
2023-02-23T07:39:12.158Z,100899.41
2023-02-23T07:40:16.413Z,100898.53
2023-02-23T07:41:21.494Z,100890.84
2023-02-23T07:42:26.271Z,100895.81
2023-02-23T07:43:30.502Z,100891.45
2023-02-23T07:44:34.780Z,100892.27
2023-02-23T07:45:39.062Z,100891.1
2023-02-23T07:46:43.388Z,100892.67
2023-02-23T07:47:47.643Z,100894.19
2023-02-23T07:48:51.911Z,100894.13
2023-02-23T07:49:56.228Z,100889.14
2023-02-23T07:51:00.458Z,100888.09
2023-02-23T07:52:04.719Z,100884.36
2023-02-23T07:53:08.966Z,100889.44
2023-02-23T07:54:13.227Z,100883.67
2023-02-23T07:55:17.641Z,100890.36
2023-02-23T07:56:21.874Z,100885.01
2023-02-23T07:57:26.199Z,100882.73
2023-02-23T07:58:30.487Z,100884.04
2023-02-23T07:59:34.762Z,100889.2
2023-02-23T08:00:38.994Z,100879.3
2023-02-23T08:01:43.231Z,100878.83
2023-02-23T08:02:47.520Z,100881.99
2023-02-23T08:03:51.819Z,100882.28
2023-02-23T08:04:56.069Z,100881.67
2023-02-23T08:06:00.325Z,100879.68
2023-02-23T08:07:04.562Z,100872.09
2023-02-23T08:08:08.854Z,100870.45
2023-02-23T08:09:13.099Z,100868.73
2023-02-23T08:10:17.379Z,100865.53
2023-02-23T08:11:22.103Z,100863.95
2023-02-23T08:12:26.502Z,100864.95
2023-02-23T08:13:30.838Z,100851.66
2023-02-23T08:14:35.142Z,100847.64
2023-02-23T08:15:39.412Z,100853.23
2023-02-23T08:16:43.775Z,100847.47
2023-02-23T08:17:48.128Z,100841.02
2023-02-23T08:18:52.565Z,100844.03
2023-02-23T08:19:56.784Z,100847.95
2023-02-23T08:21:01.065Z,100844.48
2023-02-23T08:22:06.200Z,100846.33
2023-02-23T08:23:13.269Z,100847.98
2023-02-23T08:24:17.519Z,100844.89
2023-02-23T08:25:21.777Z,100849.12
2023-02-23T08:26:26.055Z,100849.7
2023-02-23T08:27:30.307Z,100844.92
2023-02-23T08:28:34.572Z,100846.67
2023-02-23T08:29:38.815Z,100849.66
2023-02-23T08:30:43.291Z,100844.65
2023-02-23T08:31:48.076Z,100849.48
2023-02-23T08:32:52.793Z,100854.05
2023-02-23T08:33:57.105Z,100844.98
2023-02-23T08:35:01.348Z,100850.11
2023-02-23T08:36:05.612Z,100846.98
2023-02-23T08:37:09.953Z,100849.14
2023-02-23T08:38:14.593Z,100848.31
2023-02-23T08:39:18.839Z,100853.47
2023-02-23T08:40:23.092Z,100851.72
2023-02-23T08:41:27.361Z,100854.33
2023-02-23T08:42:31.595Z,100853.57
2023-02-23T08:43:35.837Z,100851.54
2023-02-23T08:44:40.075Z,100850.45
2023-02-23T08:45:44.321Z,100846.36
2023-02-23T08:46:48.615Z,100849.2
2023-02-23T08:47:52.860Z,100847.59
2023-02-23T08:48:57.151Z,100849
2023-02-23T08:50:01.460Z,100852.33
2023-02-23T08:51:05.731Z,100847.97
2023-02-23T08:52:10.005Z,100844.53
2023-02-23T08:53:14.241Z,100843.84
2023-02-23T08:54:18.468Z,100843.08
2023-02-23T08:55:22.813Z,100838.55
2023-02-23T08:56:27.126Z,100839.89
2023-02-23T08:57:31.474Z,100843.63
2023-02-23T08:58:35.798Z,100843.8
2023-02-23T08:59:40.276Z,100840.02
2023-02-23T09:00:44.598Z,100837.06
2023-02-23T09:01:48.892Z,100842.01
2023-02-23T09:02:53.243Z,100835.66
2023-02-23T09:03:57.545Z,100838.41
2023-02-23T09:05:01.975Z,100833.22
2023-02-23T09:06:06.300Z,100834.55
2023-02-23T09:07:10.563Z,100836.3
2023-02-23T09:08:14.824Z,100832.36
2023-02-23T09:09:19.078Z,100831.6
2023-02-23T09:10:23.412Z,100831.91
2023-02-23T09:11:27.708Z,100828.53
2023-02-23T09:12:31.969Z,100831.8
2023-02-23T09:13:36.225Z,100832.79
2023-02-23T09:14:40.485Z,100835.12
2023-02-23T09:15:44.953Z,100833.68
2023-02-23T09:16:49.343Z,100833.78
2023-02-23T09:17:53.583Z,100830.89
2023-02-23T09:18:57.844Z,100828.98
2023-02-23T09:20:02.098Z,100834.43
2023-02-23T09:21:06.882Z,100825.64
2023-02-23T09:22:11.188Z,100826.47
2023-02-23T09:23:15.437Z,100825.78
2023-02-23T09:24:19.690Z,100824.78
2023-02-23T09:25:24.165Z,100820.63
2023-02-23T09:26:28.434Z,100818.5
2023-02-23T09:27:32.781Z,100816.82
2023-02-23T09:28:37.072Z,100815.48
2023-02-23T09:29:41.340Z,100821.42
2023-02-23T09:30:45.794Z,100813.31
2023-02-23T09:31:50.396Z,100817.03
2023-02-23T09:32:54.905Z,100818.55
2023-02-23T09:33:59.177Z,100814.44
2023-02-23T09:35:03.438Z,100818.84
2023-02-23T09:36:07.708Z,100815.31
2023-02-23T09:37:12.000Z,100815.9
2023-02-23T09:38:16.310Z,100815.87
2023-02-23T09:39:38.341Z,100815.19
2023-02-23T09:40:43.115Z,100809.83
2023-02-23T09:41:47.341Z,100813.39
2023-02-23T09:42:51.677Z,100818.34
2023-02-23T09:43:56.003Z,100815.8
2023-02-23T09:45:00.273Z,100812.8
2023-02-23T09:46:04.577Z,100807.94
2023-02-23T09:47:10.853Z,100817.06
2023-02-23T09:48:15.720Z,100814.73
2023-02-23T09:49:20.080Z,100818
2023-02-23T09:50:25.356Z,100813.7
2023-02-23T09:51:29.657Z,100821.33
2023-02-23T09:52:33.974Z,100816.31
2023-02-23T09:53:38.642Z,100812.95
2023-02-23T09:54:42.933Z,100812.12
2023-02-23T09:55:47.153Z,100819.3
2023-02-23T09:56:51.447Z,100813.02
2023-02-23T09:57:55.713Z,100815.28
2023-02-23T09:58:59.961Z,100808.76
2023-02-23T10:00:04.231Z,100812.98
2023-02-23T10:01:08.643Z,100807.28
2023-02-23T10:02:13.307Z,100811.61
2023-02-23T10:03:17.579Z,100805.84
2023-02-23T10:04:22.035Z,100812.23
2023-02-23T10:05:26.265Z,100806.12
2023-02-23T10:06:30.525Z,100805.47
2023-02-23T10:07:34.832Z,100796.47
2023-02-23T10:08:39.085Z,100802.23
2023-02-23T10:09:43.478Z,100802.61
2023-02-23T10:10:47.972Z,100794.7
2023-02-23T10:11:52.287Z,100804.03
2023-02-23T10:12:56.593Z,100797.64
2023-02-23T10:14:00.858Z,100800.16
2023-02-23T10:15:05.095Z,100801.73
2023-02-23T10:16:09.483Z,100800.22
2023-02-23T10:17:13.932Z,100793.88
2023-02-23T10:18:18.204Z,100797.52
2023-02-23T10:19:22.476Z,100794.23
2023-02-23T10:20:26.852Z,100798.94
2023-02-23T10:21:31.107Z,100798.94
2023-02-23T10:22:35.368Z,100790.97
2023-02-23T10:23:39.620Z,100793.92
2023-02-23T10:24:43.867Z,100787.13
2023-02-23T10:25:48.133Z,100793
2023-02-23T10:26:52.439Z,100782.45
2023-02-23T10:27:56.738Z,100786.54
2023-02-23T10:29:01.195Z,100780.43
2023-02-23T10:30:05.426Z,100784.1
2023-02-23T10:31:10.048Z,100780.5
2023-02-23T10:32:14.704Z,100781.84
2023-02-23T10:33:19.214Z,100787.19
2023-02-23T10:34:24.673Z,100780.73
2023-02-23T10:35:28.935Z,100782.55
2023-02-23T10:36:33.215Z,100780.97
2023-02-23T10:37:37.456Z,100777.51
2023-02-23T10:38:41.761Z,100768.3
2023-02-23T10:39:46.031Z,100774.59
2023-02-23T10:40:53.399Z,100767.97
2023-02-23T10:41:57.667Z,100768.79
2023-02-23T10:43:01.928Z,100768.89
2023-02-23T10:44:17.694Z,100769.72
2023-02-23T10:45:21.956Z,100762.2
2023-02-23T10:46:26.615Z,100762.34
2023-02-23T10:47:31.642Z,100766.69
2023-02-23T10:48:35.994Z,100761.92
2023-02-23T10:49:40.348Z,100755.81
2023-02-23T10:50:44.602Z,100753.14
2023-02-23T10:51:48.969Z,100751.35
2023-02-23T10:52:53.294Z,100754.89
2023-02-23T10:53:59.835Z,100751.87
2023-02-23T10:55:11.304Z,100745.11
2023-02-23T10:56:15.550Z,100738.55
2023-02-23T10:57:19.829Z,100738.14
2023-02-23T10:58:24.501Z,100746.17
2023-02-23T10:59:28.865Z,100735.05
2023-02-23T11:00:33.211Z,100742.73
2023-02-23T11:01:38.983Z,100736.45
2023-02-23T11:03:02.403Z,100732.75
2023-02-23T11:04:07.438Z,100726.91
2023-02-23T11:05:11.674Z,100736.11
2023-02-23T11:06:16.407Z,100734.63
2023-02-23T11:07:20.955Z,100726.27
2023-02-23T11:08:26.199Z,100729.83
2023-02-23T11:09:48.426Z,100729.94
2023-02-23T11:10:53.745Z,100725.92
2023-02-23T11:11:58.003Z,100724
2023-02-23T11:13:02.248Z,100726.47
2023-02-23T11:14:06.540Z,100729.08
2023-02-23T11:15:10.839Z,100728.46
2023-02-23T11:16:17.793Z,100724.59
2023-02-23T11:17:22.120Z,100722.45
2023-02-23T11:18:27.466Z,100722.45
2023-02-23T11:19:31.833Z,100723
2023-02-23T11:20:36.243Z,100709.79
2023-02-23T11:21:40.696Z,100712.77
2023-02-23T11:22:44.981Z,100716.09
2023-02-23T11:23:49.207Z,100708.7
2023-02-23T11:24:53.469Z,100708.72
2023-02-23T11:25:57.743Z,100702.39
2023-02-23T11:27:02.020Z,100706.44
2023-02-23T11:28:06.291Z,100703.71
2023-02-23T11:29:10.705Z,100696.7
2023-02-23T11:30:15.016Z,100696.52
2023-02-23T11:31:20.440Z,100693.25
2023-02-23T11:32:25.959Z,100698.13
2023-02-23T11:33:30.521Z,100692.59
2023-02-23T11:34:34.811Z,100685.14
2023-02-23T11:35:42.060Z,100683.22
2023-02-23T11:36:46.352Z,100681.98
2023-02-23T11:37:50.600Z,100683.05
2023-02-23T11:38:54.843Z,100682.2
2023-02-23T11:39:59.075Z,100681.64
2023-02-23T11:41:03.396Z,100684.05
2023-02-23T11:42:07.717Z,100682.44
2023-02-23T11:43:11.985Z,100680.28
2023-02-23T11:44:16.475Z,100679.19
2023-02-23T11:45:20.890Z,100677.84
2023-02-23T11:46:25.633Z,100675.9
2023-02-23T11:47:30.149Z,100675.55
2023-02-23T11:48:34.414Z,100669.52
2023-02-23T11:49:38.671Z,100664.3
2023-02-23T11:50:42.912Z,100664.41
2023-02-23T11:51:47.176Z,100665.41
2023-02-23T11:52:51.432Z,100667.74
2023-02-23T11:53:55.708Z,100665.14
2023-02-23T11:54:59.966Z,100661.3
2023-02-23T11:56:04.211Z,100663.19
2023-02-23T11:57:08.460Z,100662.09
2023-02-23T11:58:12.724Z,100665.62
2023-02-23T11:59:17.082Z,100659.48
2023-02-23T12:00:21.362Z,100658.73
2023-02-23T12:01:25.636Z,100652.33
2023-02-23T12:02:29.941Z,100652.73
2023-02-23T12:03:34.208Z,100647.48
2023-02-23T12:04:38.610Z,100652.84
2023-02-23T12:05:43.005Z,100649.48
2023-02-23T12:06:47.420Z,100651.38
2023-02-23T12:07:51.797Z,100647.21
2023-02-23T12:08:56.045Z,100645.02
2023-02-23T12:10:00.404Z,100648.62
2023-02-23T12:11:04.640Z,100642.85
2023-02-23T12:12:08.882Z,100647.35
2023-02-23T12:13:13.294Z,100646.94
2023-02-23T12:14:17.535Z,100655.97
2023-02-23T12:15:21.879Z,100648.01
2023-02-23T12:16:26.229Z,100653.95
2023-02-23T12:17:30.582Z,100656.39
2023-02-23T12:18:35.864Z,100655.95